Time;durP1;ratioP1;P1;durP2;ratioP2;P2;SDS_P1;SDS_P2;PMS_P1;PMS_P2;Temp;Humidity;BMP_temperature;BMP_pressure;BME280_temperature;BME280_humidity;BME280_pressure;Samples;Min_cycle;Max_cycle;Signal;HPM_P1;HPM_P2
2023/07/01 00:01:29;;;;;;;9.35;6.35;;;;;;;20.55;56.89;94323.13;4212714;28;20083;-57
2023/07/01 00:03:30;;;;;;;6.85;5.75;;;;;;;20.48;57.12;94317.09;4212468;28;20132;-56
2023/07/01 00:05:32;;;;;;;9.80;6.10;;;;;;;20.47;57.56;94316.28;4211497;28;20044;-55
2023/07/01 00:07:34;;;;;;;11.98;6.13;;;;;;;20.44;58.20;94308.78;4210444;28;20113;-54
2023/07/01 00:09:36;;;;;;;9.68;6.55;;;;;;;20.41;58.64;94307.38;4203809;28;20044;-57
2023/07/01 00:11:38;;;;;;;7.00;6.18;;;;;;;20.36;58.87;94307.25;4210174;28;20405;-55
2023/07/01 00:13:39;;;;;;;10.68;7.18;;;;;;;20.33;59.07;94306.91;4204466;28;20074;-55
2023/07/01 00:15:41;;;;;;;14.25;7.03;;;;;;;20.31;58.96;94299.16;4201060;28;20158;-56
2023/07/01 00:17:43;;;;;;;9.30;6.90;;;;;;;20.30;59.26;94300.19;4201757;28;20044;-58
2023/07/01 00:19:44;;;;;;;9.68;7.10;;;;;;;20.29;59.41;94300.44;4202993;28;20422;-57
2023/07/01 00:21:46;;;;;;;10.15;6.22;;;;;;;20.29;59.39;94301.22;4210902;28;20040;-53
2023/07/01 00:23:48;;;;;;;13.50;6.72;;;;;;;20.26;59.47;94307.00;4211023;28;20055;-56
2023/07/01 00:25:49;;;;;;;8.30;6.82;;;;;;;20.19;59.81;94298.31;4210489;28;20629;-57
2023/07/01 00:27:51;;;;;;;9.95;6.70;;;;;;;20.11;59.97;94301.31;4211194;28;20048;-58
2023/07/01 00:29:53;;;;;;;9.80;6.70;;;;;;;20.08;60.16;94302.56;4209563;28;20629;-57
2023/07/01 00:31:54;;;;;;;10.85;6.65;;;;;;;20.06;60.22;94304.66;4209393;28;20074;-56
2023/07/01 00:33:56;;;;;;;12.82;6.68;;;;;;;20.05;60.09;94298.53;4211346;28;20525;-58
2023/07/01 00:35:58;;;;;;;10.25;7.00;;;;;;;20.04;60.06;94304.88;4205305;28;20497;-55
2023/07/01 00:38:00;;;;;;;12.75;7.50;;;;;;;19.98;60.22;94291.66;4201049;28;20113;-55
2023/07/01 00:40:03;;;;;;;15.32;7.80;;;;;;;19.89;60.52;94299.16;4211601;28;20095;-53
2023/07/01 00:42:05;;;;;;;;;;;;;;;19.78;60.97;94294.63;4209059;28;20131;-57
2023/07/01 00:44:07;;;;;;;11.82;8.02;;;;;;;19.70;61.12;94293.06;4205043;28;19994;-56
2023/07/01 00:46:09;;;;;;;12.50;7.00;;;;;;;19.73;61.42;94294.50;4207599;28;20131;-56
2023/07/01 00:48:24;;;;;;;10.65;7.15;;;;;;;19.73;61.13;94287.31;4207159;28;20611;-53
2023/07/01 00:50:25;;;;;;;11.90;7.22;;;;;;;19.64;61.34;94286.00;4209928;28;20541;-56
2023/07/01 00:52:27;;;;;;;11.77;6.93;;;;;;;19.57;61.63;94290.56;4208553;28;20098;-57
2023/07/01 00:54:29;;;;;;;11.82;6.85;;;;;;;19.58;61.57;94285.03;4203362;28;20055;-56
2023/07/01 00:56:31;;;;;;;12.30;6.85;;;;;;;19.61;61.34;94289.91;4211537;28;20046;-56
2023/07/01 00:58:33;;;;;;;12.10;6.68;;;;;;;19.61;61.16;94292.56;4211851;28;20101;-59
2023/07/01 01:00:35;;;;;;;9.73;7.00;;;;;;;19.33;62.18;94295.78;4211130;28;20052;-60
2023/07/01 01:02:51;;;;;;;8.05;6.65;;;;;;;19.33;62.09;94294.97;4211888;28;20047;-57
2023/07/01 01:05:02;;;;;;;9.18;6.50;;;;;;;19.37;61.86;94296.16;4211284;28;20056;-58
2023/07/01 01:07:45;;;;;;;10.15;6.50;;;;;;;19.47;61.45;94298.25;4198124;28;20040;-56
2023/07/01 01:09:59;;;;;;;10.18;6.40;;;;;;;19.56;60.59;94302.25;4196179;28;20093;-56
2023/07/01 01:12:03;;;;;;;13.13;6.63;;;;;;;19.56;60.61;94294.28;4210303;28;20062;-55
2023/07/01 01:14:08;;;;;;;8.15;6.35;;;;;;;19.50;60.45;94295.97;4227161;28;20570;-54
2023/07/01 01:16:11;;;;;;;9.05;6.35;;;;;;;19.50;60.65;94295.97;4223697;28;20511;-55
2023/07/01 01:18:16;;;;;;;8.48;6.53;;;;;;;19.49;60.89;94286.41;4209414;28;20055;-57
2023/07/01 01:20:20;;;;;;;7.97;6.50;;;;;;;19.53;60.87;94289.41;4203631;28;20433;-56
2023/07/01 01:22:26;;;;;;;7.75;6.57;;;;;;;19.50;60.88;94284.53;4207651;28;20383;-58
2023/07/01 01:24:29;;;;;;;8.90;6.90;;;;;;;19.44;60.81;94283.59;4210254;28;20040;-57
2023/07/01 01:26:40;;;;;;;9.45;6.50;;;;;;;19.33;60.92;94281.69;4208921;28;20051;-55
2023/07/01 01:28:42;;;;;;;9.82;6.38;;;;;;;19.31;61.14;94281.91;4207253;28;20047;-57
2023/07/01 01:30:43;;;;;;;10.48;6.20;;;;;;;19.27;60.94;94287.88;4203709;28;20062;-59
2023/07/01 01:32:46;;;;;;;7.35;6.50;;;;;;;19.16;60.91;94287.59;4204621;28;20048;-58
2023/07/01 01:34:48;;;;;;;7.82;6.85;;;;;;;18.37;62.78;94291.84;4199264;28;20044;-53
2023/07/01 01:36:53;;;;;;;9.93;6.70;;;;;;;17.81;64.50;94288.16;4211548;28;20502;-55
2023/07/01 01:38:58;;;;;;;6.93;6.20;;;;;;;17.55;65.39;94287.28;4209076;28;20157;-56
2023/07/01 01:41:07;;;;;;;9.40;6.85;;;;;;;17.57;66.16;94281.75;4195444;28;20056;-56
2023/07/01 01:43:14;;;;;;;10.43;6.90;;;;;;;17.84;65.39;94274.50;4196453;28;20045;-55
2023/07/01 01:45:19;;;;;;;11.02;6.40;;;;;;;18.09;64.49;94273.69;4197520;28;20153;-55
2023/07/01 01:47:22;;;;;;;10.27;6.68;;;;;;;18.32;63.76;94273.91;4209691;28;20044;-57
2023/07/01 01:49:25;;;;;;;7.90;6.43;;;;;;;18.50;62.99;94274.97;4210732;28;20489;-54
2023/07/01 01:51:27;;;;;;;9.63;7.20;;;;;;;18.64;62.39;94279.16;4209596;28;20085;-54
2023/07/01 01:53:29;;;;;;;11.80;6.55;;;;;;;18.77;62.22;94276.34;4207205;28;20048;-53
2023/07/01 01:55:32;;;;;;;8.18;6.10;;;;;;;18.73;62.30;94284.97;4203646;28;20062;-57
2023/07/01 01:57:34;;;;;;;10.68;6.93;;;;;;;18.78;62.10;94283.31;4202307;28;20131;-57
2023/07/01 01:59:36;;;;;;;16.23;7.50;;;;;;;18.81;62.12;94279.41;4208225;28;20048;-57
2023/07/01 02:01:38;;;;;;;8.70;6.70;;;;;;;18.87;62.25;94280.38;4202860;28;20048;-59
2023/07/01 02:03:40;;;;;;;8.55;7.28;;;;;;;18.94;62.10;94273.16;4210621;28;20044;-59
2023/07/01 02:05:42;;;;;;;8.07;6.82;;;;;;;18.94;62.33;94276.63;4203301;28;20102;-57
2023/07/01 02:07:44;;;;;;;10.38;7.18;;;;;;;18.96;62.16;94269.25;4205117;28;20059;-56
2023/07/01 02:09:45;;;;;;;11.05;7.45;;;;;;;18.99;62.25;94276.78;4206408;28;20056;-57
2023/07/01 02:11:47;;;;;;;9.93;7.30;;;;;;;19.03;62.31;94280.59;4202588;28;20051;-54
2023/07/01 02:13:49;;;;;;;9.30;7.65;;;;;;;19.04;62.10;94281.44;4202376;28;20467;-55
2023/07/01 02:15:50;;;;;;;12.13;7.10;;;;;;;18.99;62.40;94275.94;4209275;28;20083;-55
2023/07/01 02:17:53;;;;;;;8.10;7.00;;;;;;;18.86;62.92;94276.09;4209959;28;20497;-55
2023/07/01 02:19:54;;;;;;;12.45;7.57;;;;;;;18.80;63.14;94272.50;4211600;28;20095;-56
2023/07/01 02:21:56;;;;;;;10.88;6.70;;;;;;;18.78;63.34;94280.69;4209424;28;20048;-56
2023/07/01 02:23:58;;;;;;;14.18;8.52;;;;;;;18.39;64.66;94279.16;4209945;28;20050;-57
2023/07/01 02:26:00;;;;;;;11.75;8.15;;;;;;;18.08;65.73;94278.19;4207708;28;20066;-56
2023/07/01 02:28:01;;;;;;;11.18;7.90;;;;;;;18.03;66.01;94264.78;4196894;28;20071;-57
2023/07/01 02:30:03;;;;;;;11.75;7.82;;;;;;;18.11;65.90;94267.19;4206312;28;20044;-59
2023/07/01 02:32:06;;;;;;;11.48;7.80;;;;;;;18.22;65.71;94268.31;4210751;28;20051;-56
2023/07/01 02:34:07;;;;;;;8.90;7.95;;;;;;;18.11;65.61;94274.28;4206234;28;20635;-55
2023/07/01 02:36:09;;;;;;;14.13;8.07;;;;;;;18.01;66.04;94272.13;4208854;28;20048;-56
2023/07/01 02:38:11;;;;;;;11.70;7.85;;;;;;;18.01;66.11;94282.75;4210626;28;20051;-57
2023/07/01 02:40:13;;;;;;;9.48;7.88;;;;;;;17.90;66.50;94284.25;4211412;28;20094;-53
2023/07/01 02:42:19;;;;;;;10.65;7.72;;;;;;;17.89;66.51;94284.44;4209788;28;20056;-58
2023/07/01 02:44:21;;;;;;;13.35;8.77;;;;;;;17.51;67.35;94293.19;4208169;28;20047;-57
2023/07/01 02:46:23;;;;;;;11.60;8.30;;;;;;;16.84;69.57;94297.94;4195794;28;20045;-58
2023/07/01 02:48:25;;;;;;;12.15;8.40;;;;;;;16.58;70.67;94296.94;4205280;28;20457;-54
2023/07/01 02:50:26;;;;;;;11.50;9.27;;;;;;;16.24;71.51;94296.16;4197462;28;20044;-55
2023/07/01 02:52:28;;;;;;;9.27;8.38;;;;;;;16.18;71.81;94297.78;4195888;28;20048;-55
2023/07/01 02:54:30;;;;;;;10.93;8.65;;;;;;;16.23;71.57;94296.34;4201242;28;20052;-56
2023/07/01 02:56:32;;;;;;;8.90;8.00;;;;;;;16.16;72.24;94301.63;4200808;28;20048;-55
2023/07/01 02:58:33;;;;;;;9.05;8.02;;;;;;;16.28;71.80;94307.13;4196422;28;20044;-59
2023/07/01 03:00:35;;;;;;;12.18;8.55;;;;;;;16.13;72.46;94304.66;4196408;28;20056;-55
2023/07/01 03:02:37;;;;;;;11.25;9.00;;;;;;;16.26;72.35;94309.16;4199976;28;20094;-58
2023/07/01 03:04:39;;;;;;;13.15;8.20;;;;;;;16.34;71.99;94308.94;4203913;28;20065;-57
2023/07/01 03:06:40;;;;;;;10.38;8.45;;;;;;;16.54;71.70;94306.28;4197198;28;20143;-56
2023/07/01 03:08:42;;;;;;;10.32;8.40;;;;;;;16.69;70.81;94306.06;4205931;28;20078;-56
2023/07/01 03:10:44;;;;;;;9.48;8.50;;;;;;;16.61;70.65;94308.94;4195621;28;20098;-55
2023/07/01 03:12:46;;;;;;;14.07;8.80;;;;;;;16.33;71.99;94308.16;4195678;28;20045;-55
2023/07/01 03:14:48;;;;;;;11.85;7.93;;;;;;;16.43;71.84;94301.63;4199601;28;20105;-55
2023/07/01 03:16:52;;;;;;;8.77;7.88;;;;;;;16.42;71.87;94303.47;4207734;28;20177;-53
2023/07/01 03:18:54;;;;;;;8.70;7.80;;;;;;;16.43;71.97;94301.63;4210831;28;20052;-54
2023/07/01 03:20:58;;;;;;;10.40;7.80;;;;;;;16.62;71.64;94302.63;4210426;28;20052;-57
2023/07/01 03:22:59;;;;;;;;;;;;;;;16.74;70.70;94306.28;4199723;28;20765;-56
2023/07/01 03:25:02;;;;;;;13.23;8.25;;;;;;;16.89;70.53;94304.22;4206835;28;20004;-56
2023/07/01 03:27:04;;;;;;;12.80;7.97;;;;;;;17.08;70.08;94304.38;4202658;28;20512;-55
2023/07/01 03:29:05;;;;;;;11.45;8.20;;;;;;;17.24;69.28;94303.09;4201785;28;20417;-56
2023/07/01 03:31:07;;;;;;;8.90;8.05;;;;;;;17.34;68.81;94298.19;4209732;28;20052;-56
2023/07/01 03:33:12;;;;;;;11.68;7.60;;;;;;;17.33;68.74;94296.53;4209464;28;20055;-57
2023/07/01 03:35:14;;;;;;;8.88;7.95;;;;;;;17.38;68.81;94294.09;4207806;28;20498;-57
2023/07/01 03:37:16;;;;;;;10.30;7.77;;;;;;;17.52;68.43;94300.13;4207343;28;20131;-57
2023/07/01 03:39:18;;;;;;;8.70;7.05;;;;;;;17.63;67.94;94301.28;4208625;28;20052;-56
2023/07/01 03:41:19;;;;;;;8.52;7.38;;;;;;;17.64;67.60;94297.59;4197712;28;20052;-55
2023/07/01 03:43:21;;;;;;;12.63;7.65;;;;;;;17.56;67.80;94307.44;4204862;28;20106;-56
2023/07/01 03:45:23;;;;;;;9.13;7.55;;;;;;;17.67;67.89;94307.78;4208834;28;20052;-57
2023/07/01 03:47:25;;;;;;;13.05;7.18;;;;;;;17.81;67.38;94299.56;4213293;28;20504;-54
2023/07/01 03:49:26;;;;;;;9.50;6.97;;;;;;;17.83;67.06;94301.19;4213001;28;20048;-55
2023/07/01 03:51:30;;;;;;;11.23;7.45;;;;;;;17.99;66.83;94296.19;4204824;28;20052;-56
2023/07/01 03:53:31;;;;;;;12.80;7.07;;;;;;;18.14;66.41;94300.38;4197167;28;20049;-53
2023/07/01 03:55:33;;;;;;;15.63;6.65;;;;;;;18.30;65.92;94302.50;4197157;28;20056;-56
2023/07/01 03:57:35;;;;;;;10.18;7.18;;;;;;;18.46;65.19;94310.94;4201958;28;20040;-58
2023/07/01 03:59:37;;;;;;;8.70;6.95;;;;;;;18.55;64.69;94309.63;4213748;28;20048;-57
2023/07/01 04:01:39;;;;;;;7.70;6.63;;;;;;;18.67;64.29;94310.56;4200689;28;20048;-58
2023/07/01 04:03:41;;;;;;;7.60;6.90;;;;;;;18.78;63.92;94301.91;4210869;28;20087;-59
2023/07/01 04:05:43;;;;;;;9.07;7.57;;;;;;;18.83;63.38;94307.34;4203673;28;20052;-58
2023/07/01 04:07:47;;;;;;;8.30;7.40;;;;;;;18.87;63.19;94301.63;4213164;28;20044;-57
2023/07/01 04:09:49;;;;;;;;;;;;;;;18.93;63.49;94303.38;4201259;28;20076;-57
2023/07/01 04:11:52;;;;;;;10.07;7.20;;;;;;;18.94;63.12;94303.16;4200646;28;20000;-55
2023/07/01 04:13:53;;;;;;;9.32;7.10;;;;;;;19.01;63.30;94303.09;4212718;28;20105;-58
2023/07/01 04:15:55;;;;;;;14.00;6.88;;;;;;;19.05;63.07;94304.28;4213170;28;20465;-55
2023/07/01 04:17:57;;;;;;;11.18;7.10;;;;;;;19.14;62.83;94297.63;4210477;28;20064;-59
2023/07/01 04:19:58;;;;;;;10.57;6.72;;;;;;;19.19;62.96;94292.47;4212307;28;20044;-58
2023/07/01 04:22:00;;;;;;;10.23;7.25;;;;;;;19.31;62.71;94302.34;4212957;28;20044;-56
2023/07/01 04:24:04;;;;;;;8.90;6.78;;;;;;;19.39;62.37;94297.53;4203704;28;20049;-59
2023/07/01 04:26:06;;;;;;;11.70;7.13;;;;;;;19.51;62.01;94302.09;4201857;28;20102;-56
2023/07/01 04:28:08;;;;;;;12.57;7.75;;;;;;;19.61;61.70;94299.72;4205982;28;20481;-56
2023/07/01 04:30:11;;;;;;;8.27;7.47;;;;;;;19.71;61.65;94296.56;4203463;28;20452;-56
2023/07/01 04:32:13;;;;;;;9.93;7.03;;;;;;;19.73;61.65;94294.50;4203033;28;20501;-58
2023/07/01 04:34:15;;;;;;;7.88;7.00;;;;;;;19.80;61.74;94296.00;4212779;28;20101;-59
2023/07/01 04:36:17;;;;;;;9.20;7.47;;;;;;;19.81;61.23;94294.16;4211810;28;20482;-59
2023/07/01 04:38:18;;;;;;;8.70;6.82;;;;;;;19.86;61.28;94294.31;4212905;28;20044;-58
2023/07/01 04:40:20;;;;;;;10.48;7.53;;;;;;;19.90;61.02;94294.69;4212862;28;20413;-60
2023/07/01 04:42:22;;;;;;;9.00;7.78;;;;;;;19.86;60.86;94294.31;4211186;28;20051;-59
2023/07/01 04:44:24;;;;;;;17.20;8.70;;;;;;;19.62;60.83;94299.50;4212528;28;20052;-59
2023/07/01 04:46:25;;;;;;;8.48;7.70;;;;;;;19.58;61.31;94290.34;4213159;28;20147;-56
2023/07/01 04:48:27;;;;;;;13.60;8.73;;;;;;;19.65;61.46;94292.94;4202564;28;20086;-58
2023/07/01 04:50:30;;;;;;;9.00;8.15;;;;;;;19.75;61.62;94297.75;4208421;28;20048;-58
2023/07/01 04:52:32;;;;;;;9.25;8.35;;;;;;;19.80;61.34;94297.88;4200510;28;20535;-58
2023/07/01 04:54:33;;;;;;;11.13;8.90;;;;;;;19.81;61.14;94297.66;4211213;28;20048;-57
2023/07/01 04:56:36;;;;;;;15.75;9.80;;;;;;;19.80;61.29;94303.19;4212343;28;20085;-58
2023/07/01 04:58:37;;;;;;;10.50;8.73;;;;;;;19.78;61.48;94302.59;4199435;28;20122;-58
2023/07/01 05:00:39;;;;;;;10.57;8.52;;;;;;;19.82;61.53;94311.75;4213165;28;20048;-59
2023/07/01 05:02:41;;;;;;;10.80;8.60;;;;;;;19.85;61.07;94311.28;4204648;28;20048;-65
2023/07/01 05:04:43;;;;;;;9.48;8.50;;;;;;;19.80;60.62;94311.16;4196758;28;20149;-58
2023/07/01 05:06:45;;;;;;;9.05;8.10;;;;;;;19.66;60.72;94313.16;4207569;28;20040;-58
2023/07/01 05:08:46;;;;;;;11.02;8.40;;;;;;;19.70;60.61;94313.53;4201602;28;20040;-57
2023/07/01 05:10:48;;;;;;;11.43;8.98;;;;;;;19.68;60.57;94312.91;4212171;28;20127;-56
2023/07/01 05:12:50;;;;;;;9.38;8.30;;;;;;;19.67;60.65;94316.63;4199443;28;20463;-56
2023/07/01 05:14:53;;;;;;;13.50;8.82;;;;;;;19.69;61.20;94323.31;4209324;28;20648;-56
2023/07/01 05:16:55;;;;;;;13.63;9.00;;;;;;;19.81;61.48;94315.41;4196401;28;20045;-59
2023/07/01 05:18:58;;;;;;;9.48;8.52;;;;;;;19.93;61.32;94308.31;4206129;28;20059;-58
2023/07/01 05:21:00;;;;;;;15.07;9.02;;;;;;;19.97;60.74;94312.13;4210602;28;20063;-58
2023/07/01 05:23:01;;;;;;;9.75;8.75;;;;;;;20.08;60.60;94318.53;4212378;28;20036;-56
2023/07/01 05:25:04;;;;;;;10.32;8.48;;;;;;;20.23;60.32;94323.41;4212364;28;20087;-59
2023/07/01 05:27:05;;;;;;;12.93;8.98;;;;;;;20.33;59.72;94321.03;4209467;28;20056;-58
2023/07/01 05:29:07;;;;;;;13.43;8.70;;;;;;;20.49;59.05;94322.19;4212191;28;20492;-57
2023/07/01 05:31:09;;;;;;;12.60;9.45;;;;;;;20.56;58.70;94322.06;4211551;28;20126;-61
2023/07/01 05:33:11;;;;;;;12.02;8.85;;;;;;;20.60;58.46;94313.44;4211802;28;20043;-56
2023/07/01 05:35:12;;;;;;;12.30;9.75;;;;;;;20.49;58.78;94308.88;4211356;28;20044;-58
2023/07/01 05:37:14;;;;;;;12.02;10.43;;;;;;;20.30;59.00;94307.34;4200582;28;20045;-58
2023/07/01 05:39:17;;;;;;;11.25;10.10;;;;;;;20.31;59.27;94312.47;4208590;28;20136;-58
2023/07/01 05:41:19;;;;;;;12.20;10.40;;;;;;;20.16;59.71;94322.72;4210994;28;20518;-57
2023/07/01 05:43:20;;;;;;;17.10;11.23;;;;;;;20.01;60.41;94317.81;4212060;28;20105;-59
2023/07/01 05:45:22;;;;;;;14.10;11.57;;;;;;;20.09;60.45;94320.16;4212647;28;20176;-58
2023/07/01 05:47:24;;;;;;;12.30;11.00;;;;;;;20.12;60.11;94310.91;4209459;28;20070;-58
2023/07/01 05:49:25;;;;;;;12.52;10.80;;;;;;;20.12;60.09;94318.88;4195353;28;20045;-59
2023/07/01 05:51:27;;;;;;;15.90;11.52;;;;;;;20.21;59.45;94317.53;4203325;28;20059;-57
2023/07/01 05:53:30;;;;;;;14.43;10.70;;;;;;;20.40;59.14;94315.59;4210887;28;20299;-58
2023/07/01 05:55:31;;;;;;;13.60;10.52;;;;;;;20.50;58.84;94315.84;4195952;28;20110;-59
2023/07/01 05:57:33;;;;;;;12.48;10.32;;;;;;;20.54;58.25;94322.31;4195737;28;20102;-59
2023/07/01 05:59:35;;;;;;;16.10;11.52;;;;;;;20.54;58.84;94319.66;4204949;28;20517;-60
2023/07/01 06:01:36;;;;;;;14.45;10.98;;;;;;;20.40;58.00;94315.59;4198688;28;20080;-60
2023/07/01 06:03:38;;;;;;;13.55;10.80;;;;;;;20.48;58.38;94323.25;4210963;28;20055;-62
2023/07/01 06:05:40;;;;;;;12.77;9.88;;;;;;;20.64;57.78;94327.09;4205129;28;20094;-58
2023/07/01 06:07:41;;;;;;;15.18;11.05;;;;;;;20.86;57.40;94325.50;4205833;28;20040;-57
2023/07/01 06:09:47;;;;;;;14.32;10.20;;;;;;;21.05;56.67;94333.34;4211188;28;20055;-58
2023/07/01 06:11:49;;;;;;;13.05;9.93;;;;;;;21.20;56.77;94332.88;4196090;28;20135;-59
2023/07/01 06:13:51;;;;;;;12.18;10.55;;;;;;;21.23;56.36;94329.72;4203675;28;20560;-57
2023/07/01 06:15:52;;;;;;;11.60;10.40;;;;;;;21.38;56.36;94326.56;4208677;28;20131;-55
2023/07/01 06:17:55;;;;;;;13.35;9.70;;;;;;;21.45;55.79;94327.31;4208874;28;20382;-58
2023/07/01 06:19:57;;;;;;;12.70;10.30;;;;;;;21.28;55.37;94324.53;4210429;28;20081;-56
2023/07/01 06:21:59;;;;;;;11.20;9.77;;;;;;;21.19;55.56;94323.28;4210201;28;20109;-59
2023/07/01 06:24:00;;;;;;;13.35;10.65;;;;;;;21.14;55.99;94325.81;4210616;28;20594;-60
2023/07/01 06:26:04;;;;;;;12.63;9.82;;;;;;;21.17;55.85;94320.84;4208787;28;20127;-58
2023/07/01 06:28:05;;;;;;;11.95;10.15;;;;;;;20.85;56.48;94325.72;4209865;28;20051;-57
2023/07/01 06:30:07;;;;;;;12.40;10.15;;;;;;;20.84;57.03;94327.59;4199881;28;20060;-58
2023/07/01 06:32:09;;;;;;;11.15;10.00;;;;;;;21.00;56.84;94325.25;4200156;28;20044;-57
2023/07/01 06:34:15;;;;;;;11.60;9.13;;;;;;;21.13;56.17;94324.19;4204459;28;20067;-58
2023/07/01 06:36:17;;;;;;;11.88;9.25;;;;;;;21.12;55.58;94325.22;4206489;28;20044;-59
2023/07/01 06:38:19;;;;;;;14.75;8.95;;;;;;;21.15;55.76;94327.44;4210809;28;20043;-58
2023/07/01 06:40:21;;;;;;;11.20;9.18;;;;;;;21.20;55.63;94322.22;4206909;28;20052;-56
2023/07/01 06:42:23;;;;;;;11.05;8.30;;;;;;;21.34;55.68;94322.75;4203523;28;20105;-58
2023/07/01 06:44:25;;;;;;;11.18;8.68;;;;;;;21.53;55.41;94320.78;4207987;28;20044;-60
2023/07/01 06:46:27;;;;;;;15.27;9.52;;;;;;;21.51;54.81;94310.38;4207602;28;20089;-58
2023/07/01 06:48:28;;;;;;;13.73;8.77;;;;;;;21.57;55.00;94319.25;4211133;28;20083;-57
2023/07/01 06:50:30;;;;;;;11.40;8.60;;;;;;;21.68;54.87;94313.06;4207537;28;20056;-55
2023/07/01 06:52:32;;;;;;;10.45;8.15;;;;;;;21.76;55.85;94317.22;4209649;28;20044;-57
2023/07/01 06:54:33;;;;;;;13.88;8.88;;;;;;;21.88;54.99;94315.34;4210462;28;20048;-60
2023/07/01 06:56:35;;;;;;;12.60;8.48;;;;;;;22.06;54.70;94312.44;4204977;28;20109;-59
2023/07/01 06:58:37;;;;;;;12.98;7.97;;;;;;;22.23;53.65;94309.03;4209550;28;20048;-60
2023/07/01 07:00:39;;;;;;;13.30;8.55;;;;;;;22.40;53.84;94303.72;4210989;28;20044;-59
2023/07/01 07:02:40;;;;;;;11.88;8.07;;;;;;;22.54;53.62;94301.53;4210326;28;20123;-60
2023/07/01 07:04:43;;;;;;;9.65;8.25;;;;;;;22.19;53.21;94295.34;4210620;28;20479;-60
2023/07/01 07:06:44;;;;;;;11.00;8.48;;;;;;;22.13;53.54;94298.97;4198489;28;20052;-59
2023/07/01 07:08:46;;;;;;;11.30;7.88;;;;;;;22.10;53.64;94299.44;4209764;28;20093;-58
2023/07/01 07:10:48;;;;;;;9.95;8.30;;;;;;;22.33;53.33;94295.88;4210804;28;20135;-57
2023/07/01 07:12:50;;;;;;;8.52;7.03;;;;;;;22.36;52.83;94300.72;4208618;28;20062;-58
2023/07/01 07:14:52;;;;;;;11.60;7.82;;;;;;;22.16;53.03;94293.16;4206651;28;20044;-57
2023/07/01 07:16:54;;;;;;;11.75;7.72;;;;;;;22.33;52.80;94289.72;4201629;28;20044;-58
2023/07/01 07:18:55;;;;;;;11.43;7.93;;;;;;;22.46;52.95;94284.06;4206076;28;20122;-58
2023/07/01 07:20:57;;;;;;;11.15;7.20;;;;;;;22.33;52.74;94284.38;4209736;28;20059;-60
2023/07/01 07:22:59;;;;;;;11.00;7.70;;;;;;;22.53;52.91;94284.72;4209075;28;20048;-55
2023/07/01 07:25:00;;;;;;;12.02;8.32;;;;;;;22.45;52.09;94288.56;4204790;28;20048;-57
2023/07/01 07:27:02;;;;;;;13.90;8.15;;;;;;;22.46;52.89;94282.22;4203531;28;20530;-57
2023/07/01 07:29:04;;;;;;;10.88;7.57;;;;;;;22.71;52.28;94288.97;4206724;28;20048;-58
2023/07/01 07:31:05;;;;;;;11.50;7.68;;;;;;;22.94;51.62;94287.97;4214037;28;20492;-58
2023/07/01 07:33:07;;;;;;;11.65;7.90;;;;;;;23.18;51.26;94282.44;4207651;28;20052;-59
2023/07/01 07:35:09;;;;;;;9.98;7.85;;;;;;;23.35;51.43;94283.19;4203949;28;20135;-59
2023/07/01 07:37:11;;;;;;;9.55;7.57;;;;;;;23.07;50.49;94279.63;4208110;28;20071;-58
2023/07/01 07:39:13;;;;;;;8.95;7.15;;;;;;;23.03;50.26;94272.38;4212312;28;20087;-58
2023/07/01 07:41:16;;;;;;;9.70;7.15;;;;;;;23.09;50.02;94282.06;4212580;28;20072;-58
2023/07/01 07:43:17;;;;;;;9.60;7.50;;;;;;;23.24;49.93;94274.25;4206362;28;20110;-60
2023/07/01 07:45:20;;;;;;;14.95;8.30;;;;;;;23.36;49.91;94265.28;4198213;28;20402;-60
2023/07/01 07:47:22;;;;;;;16.98;7.82;;;;;;;23.46;50.35;94270.75;4209290;28;20048;-60
2023/07/01 07:49:24;;;;;;;11.27;7.90;;;;;;;23.63;50.41;94268.81;4212423;28;20048;-57
2023/07/01 07:51:26;;;;;;;10.27;8.27;;;;;;;23.76;49.79;94269.53;4210608;28;20529;-57
2023/07/01 07:53:27;;;;;;;10.02;7.47;;;;;;;23.90;49.20;94265.41;4210951;28;20047;-59
2023/07/01 07:55:33;;;;;;;8.70;7.10;;;;;;;24.07;49.39;94270.63;4212479;28;20052;-57
2023/07/01 07:57:36;;;;;;;10.80;7.55;;;;;;;24.05;47.68;94264.75;4212197;28;20108;-58
2023/07/01 07:59:38;;;;;;;10.70;7.10;;;;;;;23.82;48.00;94268.50;4213555;28;20377;-57
2023/07/01 08:01:39;;;;;;;9.23;6.95;;;;;;;23.83;48.20;94260.25;4212577;28;20538;-59
2023/07/01 08:03:41;;;;;;;10.80;6.95;;;;;;;23.72;48.66;94261.16;4212624;28;20116;-56
2023/07/01 08:05:43;;;;;;;8.40;7.47;;;;;;;23.54;49.23;94262.31;4212459;28;20047;-58
2023/07/01 08:07:46;;;;;;;9.38;6.68;;;;;;;23.44;49.39;94259.50;4201683;28;20552;-58
2023/07/01 08:09:47;;;;;;;9.02;6.57;;;;;;;23.43;48.83;94258.72;4210934;28;20048;-59
2023/07/01 08:11:49;;;;;;;10.55;6.03;;;;;;;23.73;48.95;94252.09;4212597;28;20059;-59
2023/07/01 08:13:51;;;;;;;12.85;6.32;;;;;;;24.03;48.56;94254.28;4205709;28;20382;-59
2023/07/01 08:15:53;;;;;;;9.73;6.70;;;;;;;24.09;47.75;94253.28;4197519;28;20110;-57
2023/07/01 08:17:54;;;;;;;13.60;6.43;;;;;;;24.07;47.91;94250.03;4211003;28;20251;-61
2023/07/01 08:19:56;;;;;;;10.65;6.45;;;;;;;24.25;48.72;94243.50;4212269;28;20048;-59
2023/07/01 08:21:57;;;;;;;10.82;6.90;;;;;;;24.29;48.16;94239.25;4210554;28;20064;-57
2023/07/01 08:23:59;;;;;;;12.48;9.77;;;;;;;24.43;47.38;94247.63;4213089;28;20052;-58
2023/07/01 08:26:01;;;;;;;8.27;6.07;;;;;;;24.56;47.25;94245.63;4210966;28;20060;-56
2023/07/01 08:28:03;;;;;;;8.88;6.53;;;;;;;24.78;47.13;94246.31;4211776;28;20055;-59
2023/07/01 08:30:05;;;;;;;8.38;6.57;;;;;;;24.96;47.43;94249.63;4214032;28;20051;-61
2023/07/01 08:32:07;;;;;;;8.80;6.47;;;;;;;25.15;47.42;94242.75;4211269;28;20423;-59
2023/07/01 08:34:09;;;;;;;8.82;7.15;;;;;;;25.17;46.86;94250.53;4206458;28;20402;-59
2023/07/01 08:36:11;;;;;;;10.48;7.70;;;;;;;25.27;46.56;94247.91;4210721;28;20090;-59
2023/07/01 08:38:14;;;;;;;8.20;5.63;;;;;;;25.41;46.35;94246.38;4204276;28;20130;-59
2023/07/01 08:40:16;;;;;;;10.02;6.65;;;;;;;25.52;46.29;94241.84;4213399;28;20060;-58
2023/07/01 08:42:22;;;;;;;7.40;6.22;;;;;;;25.40;45.57;94246.63;4205029;28;20474;-60
2023/07/01 08:44:25;;;;;;;8.20;6.50;;;;;;;25.25;46.89;94242.00;4206873;28;20097;-59
2023/07/01 08:46:27;;;;;;;9.05;6.50;;;;;;;25.41;46.57;94240.22;4206705;28;20048;-59
2023/07/01 08:48:30;;;;;;;8.07;6.45;;;;;;;25.54;45.94;94232.47;4201618;28;20397;-56
2023/07/01 08:51:07;;;;;;;9.50;6.55;;;;;;;25.65;45.33;94227.94;4209171;28;20150;-56
2023/07/01 08:53:10;;;;;;;8.68;7.18;;;;;;;25.27;46.63;94227.28;4211556;28;20052;-60
2023/07/01 08:55:12;;;;;;;9.87;6.67;;;;;;;25.48;47.68;94222.78;4211236;28;20051;-60
2023/07/01 08:57:18;;;;;;;9.27;7.15;;;;;;;25.72;46.76;94225.00;4199995;28;20101;-58
2023/07/01 08:59:21;;;;;;;14.38;7.28;;;;;;;25.60;45.37;94219.91;4204906;28;20052;-59
2023/07/01 09:01:23;;;;;;;11.98;6.40;;;;;;;25.81;46.04;94225.28;4207404;28;20474;-60
2023/07/01 09:03:27;;;;;;;14.10;6.55;;;;;;;26.05;45.67;94226.44;4208673;28;20056;-59
2023/07/01 09:05:29;;;;;;;9.20;6.28;;;;;;;26.02;43.81;94223.47;4195980;28;20040;-57
2023/07/01 09:07:31;;;;;;;10.98;6.28;;;;;;;26.09;44.04;94216.78;4203829;28;20093;-58
2023/07/01 09:09:33;;;;;;;6.53;5.90;;;;;;;26.02;44.01;94208.16;4210602;28;20048;-58
2023/07/01 09:11:35;;;;;;;7.32;6.00;;;;;;;26.09;44.62;94207.91;4210127;28;20056;-59
2023/07/01 09:13:37;;;;;;;9.60;5.50;;;;;;;26.26;44.79;94210.31;4212118;28;20050;-59
2023/07/01 09:15:57;;;;;;;6.70;5.30;;;;;;;26.33;43.30;94208.19;4209171;28;20389;-64
2023/07/01 09:17:58;;;;;;;7.28;5.43;;;;;;;26.35;43.24;94200.69;4199795;28;20139;-60
2023/07/01 09:20:04;;;;;;;8.07;5.55;;;;;;;26.45;43.20;94205.22;4209768;28;20680;-61
2023/07/01 09:22:09;;;;;;;6.22;5.43;;;;;;;26.62;42.36;94204.97;4197946;28;20131;-57
2023/07/01 09:24:12;;;;;;;6.22;5.53;;;;;;;26.55;41.45;94195.25;4200416;28;20127;-59
2023/07/01 09:26:17;;;;;;;9.55;5.53;;;;;;;26.52;41.61;94193.13;4200995;28;20104;-58
2023/07/01 09:28:31;;;;;;;8.80;4.82;;;;;;;26.60;41.72;94185.63;4203429;28;20056;-58
2023/07/01 09:30:33;;;;;;;7.22;5.40;;;;;;;26.35;41.55;94193.41;4210298;28;20052;-58
2023/07/01 09:32:35;;;;;;;6.30;4.97;;;;;;;26.31;42.08;94186.97;4201663;28;20465;-60
2023/07/01 09:34:57;;;;;;;7.72;5.35;;;;;;;26.32;41.95;94177.03;4210386;28;20083;-58